createdAt,value
2022-09-28T00:03:44.317Z,9.80
2022-09-28T00:09:20.473Z,9.30
2022-09-28T00:12:15.643Z,10.20
2022-09-28T00:14:46.661Z,11.70
2022-09-28T00:17:24.166Z,9.70
2022-09-28T00:19:54.321Z,10.00
2022-09-28T00:22:30.526Z,9.90
2022-09-28T00:25:02.651Z,9.80
2022-09-28T00:27:36.993Z,10.50
2022-09-28T00:30:08.569Z,10.50
2022-09-28T00:32:42.495Z,9.00
2022-09-28T00:35:21.660Z,8.50
2022-09-28T00:37:51.404Z,7.50
2022-09-28T00:40:29.146Z,10.20
2022-09-28T00:43:16.710Z,8.90
2022-09-28T00:46:02.740Z,9.80
2022-09-28T00:48:39.890Z,6.90
2022-09-28T00:51:22.582Z,6.80
2022-09-28T00:53:58.594Z,6.70
2022-09-28T00:56:56.403Z,8.30
2022-09-28T00:59:25.106Z,7.80
2022-09-28T01:01:56.932Z,9.70
2022-09-28T01:04:29.282Z,7.20
2022-09-28T01:07:16.713Z,7.40
2022-09-28T01:10:02.602Z,6.90
2022-09-28T01:12:42.114Z,8.10
2022-09-28T01:15:32.829Z,6.70
2022-09-28T01:18:34.626Z,8.50
2022-09-28T01:21:22.538Z,7.50
2022-09-28T01:24:20.735Z,7.10
2022-09-28T01:27:29.484Z,7.60
2022-09-28T01:30:21.078Z,7.50
2022-09-28T01:33:22.779Z,6.50
2022-09-28T01:35:57.067Z,6.90
2022-09-28T01:38:51.596Z,6.90
2022-09-28T01:41:24.746Z,6.00
2022-09-28T01:44:23.826Z,7.00
2022-09-28T01:47:03.749Z,7.80
2022-09-28T01:49:42.004Z,6.20
2022-09-28T01:52:47.190Z,6.40
2022-09-28T01:55:31.836Z,8.40
2022-09-28T01:58:36.978Z,6.90
2022-09-28T02:01:27.195Z,6.90
2022-09-28T02:04:14.290Z,7.90
2022-09-28T02:07:21.838Z,6.00
2022-09-28T02:10:36.010Z,6.70
2022-09-28T02:13:43.179Z,8.60
2022-09-28T02:16:46.136Z,7.70
2022-09-28T02:19:31.325Z,7.60
2022-09-28T02:22:44.426Z,6.70
2022-09-28T02:25:46.748Z,9.20
2022-09-28T02:28:15.415Z,11.20
2022-09-28T02:30:49.308Z,9.00
2022-09-28T02:33:45.948Z,8.30
2022-09-28T02:36:40.286Z,7.30
2022-09-28T02:39:22.641Z,8.60
2022-09-28T02:42:31.957Z,6.70
2022-09-28T02:45:39.005Z,10.40
2022-09-28T02:48:47.262Z,8.30
2022-09-28T02:51:35.156Z,7.70
2022-09-28T02:54:38.628Z,7.00
2022-09-28T02:57:54.601Z,9.10
2022-09-28T03:00:24.507Z,6.70
2022-09-28T03:03:21.483Z,12.20
2022-09-28T03:06:18.680Z,6.30
2022-09-28T03:09:02.544Z,9.10
2022-09-28T03:11:53.873Z,9.00
2022-09-28T03:17:18.727Z,7.80
2022-09-28T03:20:03.255Z,8.00
2022-09-28T03:22:35.158Z,7.90
2022-09-28T03:25:07.832Z,7.20
2022-09-28T03:27:54.489Z,8.30
2022-09-28T03:30:23.229Z,8.90
2022-09-28T03:33:04.247Z,8.80
2022-09-28T03:35:51.572Z,7.40
2022-09-28T03:38:31.191Z,10.60
2022-09-28T03:41:01.874Z,8.70
2022-09-28T03:43:54.594Z,9.00
2022-09-28T03:46:28.199Z,9.00
2022-09-28T03:49:20.186Z,10.90
2022-09-28T03:51:56.851Z,8.40
2022-09-28T03:54:37.940Z,8.50
2022-09-28T03:57:09.654Z,8.80
2022-09-28T04:00:05.118Z,9.20
2022-09-28T04:02:48.691Z,8.90
2022-09-28T04:05:17.385Z,10.20
2022-09-28T04:07:53.952Z,8.90
2022-09-28T04:10:26.018Z,10.20
2022-09-28T04:13:05.503Z,11.40
2022-09-28T04:15:36.916Z,9.40
2022-09-28T04:18:14.655Z,8.10
2022-09-28T04:21:20.732Z,9.20
2022-09-28T04:24:01.768Z,9.90
2022-09-28T04:26:34.369Z,8.50
2022-09-28T04:29:18.286Z,8.80
2022-09-28T04:32:06.039Z,8.40
2022-09-28T04:34:44.312Z,8.80
2022-09-28T04:37:31.389Z,8.70
2022-09-28T04:40:09.291Z,10.20
2022-09-28T04:42:40.046Z,9.20
2022-09-28T04:45:22.850Z,8.50
2022-09-28T04:47:55.967Z,9.50
2022-09-28T04:51:05.532Z,7.90
2022-09-28T04:53:40.169Z,7.80
2022-09-28T04:56:14.823Z,8.80
2022-09-28T04:58:43.825Z,7.70
2022-09-28T05:01:25.230Z,8.90
2022-09-28T05:04:02.083Z,8.20
2022-09-28T05:07:03.351Z,8.20
2022-09-28T05:09:41.109Z,7.80
2022-09-28T05:12:33.988Z,7.40
2022-09-28T05:15:08.450Z,7.10
2022-09-28T05:17:39.434Z,8.30
2022-09-28T05:20:15.271Z,7.40
2022-09-28T05:22:45.479Z,7.00
2022-09-28T05:25:20.609Z,7.90
2022-09-28T05:28:03.889Z,7.80
2022-09-28T05:30:52.478Z,7.90
2022-09-28T05:33:47.295Z,7.80
2022-09-28T05:36:27.070Z,6.30
2022-09-28T05:39:04.251Z,6.90
2022-09-28T05:41:41.758Z,7.80
2022-09-28T05:44:10.496Z,9.80
2022-09-28T05:46:39.322Z,7.60
2022-09-28T05:49:13.921Z,6.70
2022-09-28T05:51:42.069Z,6.30
2022-09-28T05:54:20.157Z,6.50
2022-09-28T05:56:51.275Z,5.90
2022-09-28T05:59:19.574Z,6.70
2022-09-28T06:01:55.697Z,8.10
2022-09-28T06:04:24.264Z,6.60
2022-09-28T06:06:57.529Z,8.00
2022-09-28T06:09:26.365Z,9.50
2022-09-28T06:12:00.185Z,7.30
2022-09-28T06:14:39.206Z,8.00
2022-09-28T06:17:10.634Z,8.20
2022-09-28T06:19:41.303Z,7.00
2022-09-28T06:22:26.316Z,6.00
2022-09-28T06:25:22.398Z,6.60
2022-09-28T06:28:09.295Z,7.10
2022-09-28T06:30:38.845Z,6.00
2022-09-28T06:33:15.161Z,6.00
2022-09-28T06:35:45.648Z,7.40
2022-09-28T06:38:14.209Z,7.70
2022-09-28T06:40:42.221Z,6.50
2022-09-28T06:43:15.263Z,7.40
2022-09-28T06:46:02.918Z,6.70
2022-09-28T06:49:06.370Z,6.70
2022-09-28T06:51:57.027Z,7.70
2022-09-28T06:54:57.359Z,7.20
2022-09-28T06:57:35.805Z,4.30
2022-09-28T07:00:04.639Z,7.60
2022-09-28T07:02:32.893Z,6.40
2022-09-28T07:05:30.028Z,6.80
2022-09-28T07:08:22.176Z,6.60
2022-09-28T07:11:09.007Z,6.90
2022-09-28T07:13:50.768Z,7.90
2022-09-28T07:16:28.599Z,6.40
2022-09-28T07:19:03.094Z,5.80
2022-09-28T07:21:34.262Z,5.80
2022-09-28T07:24:14.363Z,6.60
2022-09-28T07:27:12.714Z,7.60
2022-09-28T07:29:58.921Z,5.50
2022-09-28T07:32:58.138Z,7.60
2022-09-28T07:35:42.021Z,6.40
2022-09-28T07:38:19.347Z,4.80
2022-09-28T07:41:07.212Z,4.10
2022-09-28T07:43:37.077Z,5.00
2022-09-28T07:46:13.969Z,3.90
2022-09-28T07:48:58.668Z,5.50
2022-09-28T07:51:51.993Z,4.20
2022-09-28T07:54:35.863Z,4.00
2022-09-28T07:57:27.993Z,5.40
2022-09-28T08:03:10.763Z,3.00
2022-09-28T08:05:41.298Z,4.90
2022-09-28T08:10:47.715Z,3.80
2022-09-28T08:13:37.864Z,5.80
2022-09-28T08:19:20.847Z,4.40
2022-09-28T08:21:49.864Z,3.20
2022-09-28T08:26:49.073Z,4.60
2022-09-28T08:29:19.833Z,5.10
2022-09-28T08:31:53.228Z,5.50
2022-09-28T08:34:48.071Z,2.80
2022-09-28T08:37:28.917Z,4.60
2022-09-28T08:40:25.234Z,4.00
2022-09-28T08:43:23.560Z,3.80
2022-09-28T08:46:17.380Z,3.00
2022-09-28T08:49:30.374Z,3.70
2022-09-28T08:52:35.868Z,3.00
2022-09-28T08:55:34.734Z,3.20
2022-09-28T08:58:17.781Z,4.00
2022-09-28T09:00:52.009Z,3.40
2022-09-28T09:03:30.499Z,3.70
2022-09-28T09:06:34.725Z,2.80
2022-09-28T09:09:36.109Z,2.30
2022-09-28T09:12:21.877Z,2.80
2022-09-28T09:15:19.278Z,4.80
2022-09-28T09:18:00.262Z,3.10
2022-09-28T09:21:15.756Z,3.40
2022-09-28T09:24:11.609Z,2.30
2022-09-28T09:26:41.745Z,1.90
2022-09-28T09:29:32.244Z,2.10
2022-09-28T09:32:25.991Z,3.70
2022-09-28T09:35:33.005Z,2.10
2022-09-28T09:38:31.355Z,1.40
2022-09-28T09:42:10.428Z,2.60
2022-09-28T09:45:06.252Z,1.70
2022-09-28T09:48:03.986Z,2.00
2022-09-28T09:50:45.119Z,2.30
2022-09-28T09:53:28.971Z,2.00
2022-09-28T09:56:17.290Z,3.10
2022-09-28T09:59:14.402Z,1.80
2022-09-28T10:02:26.632Z,2.50
2022-09-28T10:05:20.044Z,3.60
2022-09-28T10:08:03.766Z,5.10
2022-09-28T10:10:39.106Z,2.40
2022-09-28T10:13:13.770Z,3.30
2022-09-28T10:15:45.568Z,3.90
2022-09-28T10:18:21.494Z,3.00
2022-09-28T10:21:17.062Z,1.60
2022-09-28T10:23:57.548Z,1.20
2022-09-28T10:26:56.175Z,1.60
2022-09-28T10:29:27.508Z,1.50
2022-09-28T10:31:55.784Z,2.60
2022-09-28T10:34:36.219Z,4.00
2022-09-28T10:37:11.505Z,1.10
2022-09-28T10:39:56.147Z,1.40
2022-09-28T10:42:33.955Z,1.60
2022-09-28T10:45:22.000Z,2.30
2022-09-28T10:47:50.549Z,1.50
2022-09-28T10:50:28.067Z,2.40
2022-09-28T10:53:20.375Z,1.50
2022-09-28T10:56:18.836Z,1.40
2022-09-28T10:58:48.926Z,1.90
2022-09-28T11:01:31.375Z,1.90
2022-09-28T11:04:10.517Z,2.10
2022-09-28T11:06:42.173Z,3.00
2022-09-28T11:09:41.581Z,1.60
2022-09-28T11:12:17.861Z,2.70
2022-09-28T11:14:55.715Z,3.30
2022-09-28T11:17:44.113Z,6.80
2022-09-28T11:20:27.799Z,3.90
2022-09-28T11:23:18.447Z,2.30
2022-09-28T11:26:07.890Z,4.00
2022-09-28T11:28:39.814Z,2.80
2022-09-28T11:31:12.701Z,2.00
2022-09-28T11:34:31.438Z,7.30
2022-09-28T11:37:33.868Z,2.50
2022-09-28T11:40:23.049Z,2.60
2022-09-28T11:43:46.720Z,3.40
2022-09-28T11:46:27.863Z,3.10
2022-09-28T11:49:20.838Z,4.90
2022-09-28T11:51:53.419Z,4.60
2022-09-28T11:54:33.879Z,4.00
2022-09-28T11:57:07.157Z,2.10
2022-09-28T11:59:54.085Z,3.80
2022-09-28T12:02:27.898Z,2.40
2022-09-28T12:05:17.127Z,2.60
2022-09-28T12:07:59.274Z,2.00
2022-09-28T12:11:09.896Z,2.00
2022-09-28T12:14:01.433Z,2.60
2022-09-28T12:17:05.890Z,2.90
2022-09-28T12:19:45.371Z,1.60
2022-09-28T12:22:23.805Z,2.80
2022-09-28T12:24:57.423Z,2.40
2022-09-28T12:27:35.307Z,1.70
2022-09-28T12:30:16.717Z,3.70
2022-09-28T12:32:51.460Z,3.90
2022-09-28T12:35:48.976Z,1.50
2022-09-28T12:38:22.937Z,2.80
2022-09-28T12:41:31.462Z,4.10
2022-09-28T12:44:07.585Z,3.70
2022-09-28T12:46:59.091Z,1.70
2022-09-28T12:53:26.176Z,2.30
2022-09-28T12:56:03.455Z,5.10
2022-09-28T12:58:50.918Z,2.70
2022-09-28T13:01:43.576Z,3.40
2022-09-28T13:04:39.398Z,3.60
2022-09-28T13:07:34.062Z,6.20
2022-09-28T13:10:16.972Z,3.50
2022-09-28T13:13:44.926Z,3.00
2022-09-28T13:17:05.490Z,4.90
2022-09-28T13:19:52.247Z,3.00
2022-09-28T13:22:50.123Z,2.50
2022-09-28T13:25:22.416Z,5.60
2022-09-28T13:28:01.326Z,4.20
2022-09-28T13:30:36.791Z,3.40
2022-09-28T13:33:08.271Z,2.40
2022-09-28T13:35:43.357Z,2.90
2022-09-28T13:38:25.652Z,5.20
2022-09-28T13:41:06.668Z,5.40
2022-09-28T13:43:40.168Z,2.50
2022-09-28T13:46:24.532Z,4.40
2022-09-28T13:49:14.049Z,3.80
2022-09-28T13:52:02.944Z,4.40
2022-09-28T13:54:50.525Z,4.80
2022-09-28T13:57:27.506Z,7.90
2022-09-28T14:00:11.390Z,8.40
2022-09-28T14:03:21.252Z,5.90
2022-09-28T14:06:11.613Z,5.70
2022-09-28T14:09:06.514Z,3.90
2022-09-28T14:11:37.667Z,3.80
2022-09-28T14:14:24.824Z,2.10
2022-09-28T14:17:20.309Z,5.20
2022-09-28T14:20:05.415Z,3.70
2022-09-28T14:22:37.781Z,3.70
2022-09-28T14:25:27.860Z,3.60
2022-09-28T14:28:06.815Z,5.70
2022-09-28T14:33:21.240Z,2.90
2022-09-28T14:35:57.061Z,5.00
2022-09-28T14:39:08.634Z,6.20
2022-09-28T14:41:44.109Z,5.70
2022-09-28T14:44:14.657Z,7.40
2022-09-28T14:46:45.664Z,4.90
2022-09-28T14:49:25.633Z,4.80
2022-09-28T14:51:56.545Z,5.60
2022-09-28T14:54:31.103Z,5.10
2022-09-28T14:57:23.806Z,5.90
2022-09-28T14:59:52.342Z,4.90
2022-09-28T15:02:26.552Z,6.10
2022-09-28T15:05:00.348Z,6.10
2022-09-28T15:07:42.391Z,7.10
2022-09-28T15:10:33.632Z,6.20
2022-09-28T15:13:21.487Z,7.10
2022-09-28T15:15:59.724Z,5.50
2022-09-28T15:18:55.117Z,6.60
2022-09-28T15:21:32.053Z,5.20
2022-09-28T15:24:00.055Z,6.40
2022-09-28T15:26:34.247Z,6.70
2022-09-28T15:29:03.540Z,5.20
2022-09-28T15:31:36.514Z,5.20
2022-09-28T15:34:22.889Z,4.90
2022-09-28T15:36:50.992Z,4.20
2022-09-28T15:39:23.772Z,3.70
2022-09-28T15:41:52.902Z,4.50
2022-09-28T15:44:29.654Z,4.00
2022-09-28T15:47:16.898Z,4.90
2022-09-28T15:49:58.773Z,4.00
2022-09-28T15:52:38.525Z,2.40
2022-09-28T15:55:31.669Z,2.50
2022-09-28T15:58:17.287Z,2.90
2022-09-28T16:00:50.830Z,2.60
2022-09-28T16:03:28.896Z,4.20
2022-09-28T16:06:11.057Z,3.80
2022-09-28T16:08:45.263Z,3.80
2022-09-28T16:11:29.226Z,3.70
2022-09-28T16:14:08.854Z,3.30
2022-09-28T16:16:46.620Z,3.50
2022-09-28T16:19:38.374Z,3.60
2022-09-28T16:22:14.301Z,4.50
2022-09-28T16:24:53.727Z,2.90
2022-09-28T16:30:25.846Z,5.00
2022-09-28T16:32:57.137Z,5.70
2022-09-28T16:35:30.709Z,3.90
2022-09-28T16:38:01.753Z,6.60
2022-09-28T16:40:32.621Z,5.10
2022-09-28T16:43:04.518Z,4.60
2022-09-28T16:45:35.300Z,6.80
2022-09-28T16:48:04.781Z,4.00
2022-09-28T16:53:37.307Z,6.00
2022-09-28T16:56:14.677Z,10.20
2022-09-28T16:58:44.224Z,6.80
2022-09-28T17:01:21.309Z,6.30
2022-09-28T17:03:53.828Z,5.90
2022-09-28T17:06:29.139Z,7.00
2022-09-28T17:09:06.974Z,6.00
2022-09-28T17:11:35.077Z,8.90
2022-09-28T17:14:07.117Z,6.50
2022-09-28T17:17:03.811Z,7.40
2022-09-28T17:19:31.608Z,6.50
2022-09-28T17:22:08.092Z,6.50
2022-09-28T17:24:41.802Z,7.60
2022-09-28T17:27:32.986Z,6.80
2022-09-28T17:30:13.658Z,5.90
2022-09-28T17:32:48.117Z,6.60
2022-09-28T17:35:26.346Z,6.70
2022-09-28T17:38:00.175Z,7.00
2022-09-28T17:40:29.697Z,8.30
2022-09-28T17:42:59.112Z,7.70
2022-09-28T17:45:28.876Z,7.50
2022-09-28T17:48:01.742Z,6.90
2022-09-28T17:50:36.385Z,7.30
2022-09-28T17:53:36.501Z,10.20
2022-09-28T17:56:08.040Z,6.40
2022-09-28T17:58:43.024Z,8.00
2022-09-28T18:01:12.510Z,7.10
2022-09-28T18:03:44.804Z,8.10
2022-09-28T18:06:19.994Z,7.30
2022-09-28T18:08:51.452Z,6.50
2022-09-28T18:11:19.883Z,7.60
2022-09-28T18:13:50.464Z,8.10
2022-09-28T18:16:23.447Z,7.20
2022-09-28T18:18:59.614Z,10.00
2022-09-28T18:21:37.921Z,7.50
2022-09-28T18:24:06.684Z,10.20
2022-09-28T18:26:37.685Z,7.30
2022-09-28T18:29:11.984Z,9.10
2022-09-28T18:31:52.126Z,8.40
2022-09-28T18:34:21.071Z,8.40
2022-09-28T18:37:04.822Z,7.50
2022-09-28T18:39:42.929Z,9.60
2022-09-28T18:42:20.821Z,9.30
2022-09-28T18:45:16.509Z,9.00
2022-09-28T18:47:55.288Z,10.40
2022-09-28T18:50:27.424Z,8.80
2022-09-28T18:53:11.899Z,8.70
2022-09-28T18:55:42.946Z,10.40
2022-09-28T18:58:21.265Z,9.40
2022-09-28T19:01:08.457Z,10.40
2022-09-28T19:03:47.146Z,10.40
2022-09-28T19:06:20.244Z,12.00
2022-09-28T19:08:53.502Z,9.70
2022-09-28T19:11:29.156Z,11.30
2022-09-28T19:13:58.449Z,9.50
2022-09-28T19:19:03.291Z,11.20
2022-09-28T19:21:32.224Z,10.10
2022-09-28T19:24:07.571Z,11.40
2022-09-28T19:26:41.548Z,11.70
2022-09-28T19:29:13.071Z,11.40
2022-09-28T19:31:44.081Z,14.80
2022-09-28T19:34:15.764Z,12.00
2022-09-28T19:36:47.342Z,10.30
2022-09-28T19:39:19.846Z,11.20
2022-09-28T19:41:51.418Z,10.20
2022-09-28T19:44:27.957Z,9.40
2022-09-28T19:47:07.719Z,10.90
2022-09-28T19:49:43.209Z,11.30
2022-09-28T19:52:16.840Z,13.20
2022-09-28T19:55:20.203Z,12.70
2022-09-28T19:57:56.170Z,11.70
2022-09-28T20:00:27.293Z,11.10
2022-09-28T20:03:19.906Z,9.80
2022-09-28T20:05:49.620Z,8.20
2022-09-28T20:08:27.148Z,10.50
2022-09-28T20:11:06.051Z,10.20
2022-09-28T20:13:41.877Z,8.70
2022-09-28T20:16:24.602Z,8.70
2022-09-28T20:19:08.388Z,7.60
2022-09-28T20:21:49.112Z,9.60
2022-09-28T20:24:40.743Z,10.40
2022-09-28T20:27:24.263Z,10.40
2022-09-28T20:29:59.208Z,12.10
2022-09-28T20:32:49.657Z,8.00
2022-09-28T20:35:30.437Z,10.80
2022-09-28T20:38:13.986Z,10.70
2022-09-28T20:40:51.936Z,12.00
2022-09-28T20:43:23.656Z,12.90
2022-09-28T20:45:52.136Z,13.30
2022-09-28T20:48:20.461Z,12.70
2022-09-28T20:51:12.658Z,12.40
2022-09-28T20:53:52.255Z,11.00
2022-09-28T20:56:32.636Z,12.40
2022-09-28T20:59:04.039Z,11.70
2022-09-28T21:01:39.098Z,10.20
2022-09-28T21:04:17.675Z,10.10
2022-09-28T21:06:51.427Z,11.90
2022-09-28T21:09:19.659Z,9.40
2022-09-28T21:11:48.305Z,9.30
2022-09-28T21:14:18.883Z,11.30
2022-09-28T21:16:51.009Z,7.80
2022-09-28T21:19:20.935Z,8.40
2022-09-28T21:21:51.964Z,8.90
2022-09-28T21:24:29.605Z,12.40
2022-09-28T21:27:00.094Z,12.80
2022-09-28T21:29:49.291Z,11.90
2022-09-28T21:32:29.124Z,12.00
2022-09-28T21:35:09.364Z,11.00
2022-09-28T21:37:40.635Z,11.30
2022-09-28T21:40:11.670Z,12.10
2022-09-28T21:42:53.711Z,11.70
2022-09-28T21:45:40.706Z,11.60
2022-09-28T21:48:15.807Z,9.20
2022-09-28T21:51:01.022Z,7.20
2022-09-28T21:53:37.441Z,6.30
2022-09-28T21:56:16.883Z,7.80
2022-09-28T21:59:01.476Z,6.90
2022-09-28T22:02:20.162Z,7.20
2022-09-28T22:04:51.911Z,7.40
2022-09-28T22:07:47.242Z,5.70
2022-09-28T22:10:18.961Z,6.90
2022-09-28T22:12:51.423Z,7.70
2022-09-28T22:15:23.675Z,8.00
2022-09-28T22:18:07.778Z,8.40
2022-09-28T22:20:38.837Z,7.00
2022-09-28T22:23:28.371Z,7.30
2022-09-28T22:26:18.069Z,8.00
2022-09-28T22:29:10.159Z,9.20
2022-09-28T22:31:42.487Z,7.50
2022-09-28T22:34:34.291Z,7.50
2022-09-28T22:37:15.024Z,8.20
2022-09-28T22:39:48.371Z,7.00
2022-09-28T22:42:17.400Z,8.80
2022-09-28T22:44:55.244Z,6.90
2022-09-28T22:47:26.464Z,9.00
2022-09-28T22:49:58.077Z,7.90
2022-09-28T22:52:33.680Z,7.00
2022-09-28T22:55:30.525Z,6.00
2022-09-28T22:58:15.692Z,7.40
2022-09-28T23:01:11.400Z,6.60
2022-09-28T23:03:44.783Z,7.10
2022-09-28T23:06:24.729Z,6.30
2022-09-28T23:09:04.816Z,7.20
2022-09-28T23:11:49.829Z,5.60
2022-09-28T23:14:22.933Z,6.80
2022-09-28T23:16:58.735Z,6.10
2022-09-28T23:19:28.447Z,6.60
2022-09-28T23:22:00.032Z,8.50
2022-09-28T23:24:28.355Z,9.10
2022-09-28T23:27:17.576Z,7.20
2022-09-28T23:29:57.970Z,7.30
2022-09-28T23:32:59.456Z,6.10
2022-09-28T23:35:43.565Z,6.20
2022-09-28T23:38:27.047Z,6.90
2022-09-28T23:41:10.580Z,7.00
2022-09-28T23:43:48.375Z,8.00
2022-09-28T23:46:30.783Z,7.00
2022-09-28T23:49:07.971Z,7.00
2022-09-28T23:51:41.717Z,8.00
2022-09-28T23:54:13.283Z,8.20
2022-09-28T23:56:50.555Z,12.60
2022-09-28T23:59:36.729Z,13.00
